Time;durP1;ratioP1;P1;durP2;ratioP2;P2;SDS_P1;SDS_P2;PMS_P1;PMS_P2;Temp;Humidity;BMP_temperature;BMP_pressure;BME280_temperature;BME280_humidity;BME280_pressure;Samples;Min_cycle;Max_cycle;Signal;HPM_P1;HPM_P2
2021/12/19 00:02:44;;;;;;;12.10;6.90;;;;;;;1.68;75.43;101398.61;106087;1268;69584;-84
2021/12/19 00:10:31;;;;;;;12.00;6.60;;;;;;;1.68;73.51;101391.05;106103;1266;60421;-82
2021/12/19 00:13:00;;;;;;;10.60;6.60;;;;;;;1.68;75.63;101385.56;106054;1270;71614;-85
2021/12/19 00:15:29;;;;;;;9.20;6.30;;;;;;;1.69;75.71;101381.77;106255;1265;71361;-84
2021/12/19 00:17:58;;;;;;;11.90;7.20;;;;;;;1.71;76.86;101381.55;106070;1269;68160;-87
2021/12/19 00:20:28;;;;;;;13.70;7.30;;;;;;;1.69;76.10;101377.47;106264;1266;74927;-81
2021/12/19 00:23:17;;;;;;;11.20;7.10;;;;;;;1.70;72.19;101380.20;106187;1266;60923;-83
2021/12/19 00:25:46;;;;;;;12.20;6.80;;;;;;;1.74;75.98;101378.90;106162;1270;62140;-83
2021/12/19 00:28:15;;;;;;;10.20;6.60;;;;;;;1.75;73.54;101378.86;106267;1266;74487;-85
2021/12/19 00:30:44;;;;;;;9.90;6.80;;;;;;;1.79;76.00;101381.86;105905;1266;72702;-81
2021/12/19 00:33:13;;;;;;;11.50;6.40;;;;;;;1.78;77.38;101379.48;106064;1269;70742;-83
2021/12/19 00:35:42;;;;;;;13.60;6.90;;;;;;;1.76;77.25;101374.52;106032;1268;73338;-85
2021/12/19 00:38:11;;;;;;;10.90;6.80;;;;;;;1.76;76.59;101375.90;106269;1266;62010;-80
2021/12/19 00:40:40;;;;;;;9.00;6.10;;;;;;;1.77;77.88;101370.55;106299;1269;60899;-83
2021/12/19 00:43:21;;;;;;;11.10;6.80;;;;;;;1.72;72.42;101360.74;106276;1265;72207;-85
2021/12/19 00:45:52;;;;;;;13.00;6.90;;;;;;;1.75;75.80;101354.81;106138;1269;72316;-85
2021/12/19 00:48:21;;;;;;;9.80;6.30;;;;;;;1.74;74.23;101350.20;106282;1265;69191;-84
2021/12/19 00:50:50;;;;;;;10.40;6.60;;;;;;;1.77;76.07;101342.91;106114;1268;72342;-84
2021/12/19 00:53:19;;;;;;;12.50;7.00;;;;;;;1.78;73.65;101334.48;106045;1268;59036;-84
2021/12/19 00:55:48;;;;;;;11.60;6.30;;;;;;;1.82;74.82;101327.83;106020;1268;61406;-82
2021/12/19 00:58:17;;;;;;;10.70;6.10;;;;;;;1.83;75.09;101325.60;106145;1268;71948;-84
2021/12/19 01:00:46;;;;;;;8.10;5.30;;;;;;;1.85;77.00;101320.73;106003;1269;69652;-81
2021/12/19 01:03:15;;;;;;;13.00;6.30;;;;;;;1.88;74.45;101318.74;106133;1268;68787;-83
2021/12/19 01:05:44;;;;;;;12.70;7.20;;;;;;;1.83;74.74;101310.48;105987;1269;74498;-83
2021/12/19 01:08:14;;;;;;;8.60;5.20;;;;;;;1.81;74.88;101303.64;106078;1268;60577;-85
2021/12/19 01:10:45;;;;;;;9.90;6.30;;;;;;;1.80;73.44;101304.70;106130;1268;60943;-81
2021/12/19 01:13:14;;;;;;;12.60;6.40;;;;;;;1.77;72.88;101302.21;105893;1271;73557;-79
2021/12/19 01:15:44;;;;;;;9.30;5.70;;;;;;;1.76;74.45;101292.30;106092;1269;72367;-82
2021/12/19 01:18:13;;;;;;;11.50;5.80;;;;;;;1.79;74.62;101286.54;106037;1269;69764;-85
2021/12/19 01:20:42;;;;;;;9.50;6.50;;;;;;;1.81;73.51;101281.83;106050;1268;71164;-83
2021/12/19 01:23:11;;;;;;;10.80;6.90;;;;;;;1.79;73.19;101286.36;106086;1269;59258;-81
2021/12/19 01:25:40;;;;;;;9.50;5.90;;;;;;;1.77;73.25;101279.00;106174;1268;59109;-80
2021/12/19 01:28:09;;;;;;;12.70;7.00;;;;;;;1.77;72.34;101277.13;106163;1268;71982;-78
2021/12/19 01:30:38;;;;;;;10.10;6.10;;;;;;;1.74;73.33;101270.52;107211;1268;69900;-80
2021/12/19 01:33:07;;;;;;;10.90;6.20;;;;;;;1.77;73.56;101266.14;107305;1269;68726;-83
2021/12/19 01:35:36;;;;;;;9.10;5.30;;;;;;;1.78;74.63;101264.23;106223;1269;72377;-81
2021/12/19 01:38:05;;;;;;;9.70;6.40;;;;;;;1.79;72.99;101262.83;106040;1269;59026;-83
2021/12/19 01:40:34;;;;;;;10.40;5.80;;;;;;;1.76;73.11;101267.02;106155;1268;60103;-79
2021/12/19 01:43:03;;;;;;;11.50;5.60;;;;;;;1.76;72.91;101259.83;106129;1268;72813;-77
2021/12/19 01:45:39;;;;;;;10.30;5.90;;;;;;;1.78;72.31;101254.27;106145;1269;70557;-79
2021/12/19 01:48:11;;;;;;;8.30;5.30;;;;;;;1.80;72.27;101252.86;105992;1268;70703;-80
2021/12/19 01:50:40;;;;;;;8.90;5.10;;;;;;;1.80;72.02;101245.96;105981;1268;73726;-79
2021/12/19 01:53:11;;;;;;;7.50;3.60;;;;;;;1.81;70.74;101242.16;106257;1266;59369;-79
2021/12/19 01:55:41;;;;;;;8.20;5.40;;;;;;;1.84;70.02;101233.34;106778;1265;59016;-79
2021/12/19 01:58:11;;;;;;;8.50;5.50;;;;;;;1.84;70.95;101232.48;106277;1268;73527;-81
2021/12/19 02:00:55;;;;;;;8.80;5.40;;;;;;;1.87;70.77;101225.02;106116;1266;71666;-78
2021/12/19 02:03:25;;;;;;;7.30;4.90;;;;;;;1.88;70.06;101215.02;106073;1269;71670;-79
2021/12/19 02:05:54;;;;;;;8.30;5.30;;;;;;;1.87;69.36;101209.70;107809;1268;73412;-78
2021/12/19 02:08:23;;;;;;;8.70;5.20;;;;;;;1.85;68.98;101207.18;106359;1266;58952;-78
2021/12/19 02:10:52;;;;;;;10.50;5.70;;;;;;;1.84;67.92;101201.54;106047;1269;60499;-80
2021/12/19 02:13:20;;;;;;;5.60;3.40;;;;;;;1.87;66.80;101199.23;106619;1269;73866;-79
2021/12/19 02:15:50;;;;;;;8.50;4.90;;;;;;;1.88;66.61;101193.73;105966;1269;72550;-80
2021/12/19 02:18:21;;;;;;;8.20;5.20;;;;;;;1.81;67.09;101188.73;106031;1269;70656;-80
2021/12/19 02:20:56;;;;;;;6.20;3.00;;;;;;;1.81;66.91;101184.79;106207;1266;72403;-81
2021/12/19 02:23:27;;;;;;;9.10;6.10;;;;;;;1.85;66.12;101175.40;105967;1269;59723;-79
2021/12/19 02:25:57;;;;;;;9.30;5.70;;;;;;;1.81;67.33;101163.34;105857;1266;59794;-81
2021/12/19 02:28:26;;;;;;;8.20;4.80;;;;;;;1.82;67.05;101161.95;106295;1265;73733;-82
2021/12/19 02:30:55;;;;;;;8.20;5.00;;;;;;;1.81;67.00;101152.16;106030;1268;73293;-82
2021/12/19 02:33:26;;;;;;;9.80;6.10;;;;;;;1.77;67.03;101154.02;106283;1265;70400;-82
2021/12/19 02:36:07;;;;;;;8.20;4.60;;;;;;;1.72;67.35;101149.02;106159;1268;73902;-82
2021/12/19 02:49:35;;;;;;;10.10;5.70;;;;;;;1.65;68.30;101128.95;106230;1266;69716;-86
2021/12/19 02:52:14;;;;;;;9.60;5.60;;;;;;;1.67;69.27;101122.18;106424;1266;73929;-83
2021/12/19 02:54:43;;;;;;;9.50;6.00;;;;;;;1.66;69.20;101123.95;106911;1269;60380;-83
2021/12/19 02:57:13;;;;;;;9.90;5.70;;;;;;;1.68;69.72;101120.96;106934;1266;59903;-82
2021/12/19 02:59:42;;;;;;;9.80;5.50;;;;;;;1.69;69.36;101116.30;107153;1266;72705;-83
2021/12/19 03:02:11;;;;;;;9.60;5.60;;;;;;;1.67;70.24;101112.40;106584;1266;70829;-85
2021/12/19 03:04:55;;;;;;;7.70;4.20;;;;;;;1.72;69.56;101112.41;106103;1267;68272;-86
2021/12/19 03:07:25;;;;;;;7.80;5.40;;;;;;;1.73;68.96;101111.21;106289;1265;73173;-87
2021/12/19 03:10:20;;;;;;;9.00;4.90;;;;;;;1.67;69.49;101107.95;106277;1266;60472;-86
2021/12/19 03:13:06;;;;;;;10.00;5.00;;;;;;;1.67;69.70;101102.96;106445;1266;59355;-87
2021/12/19 03:18:26;;;;;;;11.10;5.40;;;;;;;1.68;69.54;101098.83;106144;1270;72602;-87
2021/12/19 03:20:55;;;;;;;10.70;5.20;;;;;;;1.66;69.77;101098.87;106226;1269;70735;-87
2021/12/19 03:23:25;;;;;;;8.80;5.40;;;;;;;1.65;70.12;101101.84;106302;1266;74167;-88
2021/12/19 03:25:54;;;;;;;9.80;5.30;;;;;;;1.63;70.11;101094.14;106315;1265;61290;-89
2021/12/19 03:28:23;;;;;;;10.00;5.40;;;;;;;1.64;70.75;101084.70;106103;1269;59251;-89
2021/12/19 03:30:52;;;;;;;10.50;5.10;;;;;;;1.67;71.05;101079.62;106103;1269;72678;-87
2021/12/19 03:33:21;;;;;;;8.70;5.20;;;;;;;1.68;70.77;101075.79;106243;1270;70713;-87
2021/12/19 03:35:50;;;;;;;9.00;5.20;;;;;;;1.67;70.99;101073.41;106358;1265;69558;-89
2021/12/19 03:38:19;;;;;;;10.10;5.30;;;;;;;1.67;71.24;101069.80;106289;1265;72023;-88
2021/12/19 03:41:15;;;;;;;9.40;4.60;;;;;;;1.68;71.71;101057.25;106256;1267;58967;-88
2021/12/19 03:43:42;;;;;;;8.30;5.00;;;;;;;1.72;71.32;101061.61;106241;1265;60178;-88
2021/12/19 03:46:11;;;;;;;9.70;5.10;;;;;;;1.73;70.86;101055.55;106061;1269;72068;-89
2021/12/19 03:48:41;;;;;;;7.40;4.90;;;;;;;1.69;71.57;101048.65;105748;1268;71645;-88
2021/12/19 03:51:10;;;;;;;8.90;5.00;;;;;;;1.68;72.31;101051.94;106193;1268;70113;-88
2021/12/19 03:53:39;;;;;;;7.30;4.80;;;;;;;1.70;71.88;101053.08;106241;1265;71986;-87
2021/12/19 03:56:08;;;;;;;8.00;4.80;;;;;;;1.69;72.23;101047.09;106238;1268;59948;-91
2021/12/19 03:58:37;;;;;;;9.70;5.30;;;;;;;1.70;71.99;101043.13;106276;1266;60543;-87
2021/12/19 04:01:08;;;;;;;8.50;5.10;;;;;;;1.67;72.10;101040.11;106287;1265;72446;-89
2021/12/19 04:03:37;;;;;;;7.90;4.80;;;;;;;1.68;72.33;101035.27;106157;1269;69003;-89
2021/12/19 04:06:06;;;;;;;7.30;5.20;;;;;;;1.73;72.60;101027.23;106226;1268;70719;-86
2021/12/19 04:08:35;;;;;;;7.20;5.00;;;;;;;1.73;72.78;101020.71;107144;1266;71465;-85
2021/12/19 04:11:04;;;;;;;9.40;5.00;;;;;;;1.69;72.05;101015.16;106427;1266;59337;-85
2021/12/19 04:13:33;;;;;;;8.30;5.00;;;;;;;1.72;71.96;101008.86;106226;1265;60104;-82
2021/12/19 04:16:03;;;;;;;7.90;5.00;;;;;;;1.73;72.62;101005.73;106364;1266;72139;-81
2021/12/19 04:18:31;;;;;;;9.60;5.20;;;;;;;1.81;72.08;101003.63;106389;1266;72630;-82
2021/12/19 04:21:00;;;;;;;8.40;5.50;;;;;;;1.81;72.99;100992.96;106234;1266;70395;-82
2021/12/19 04:23:30;;;;;;;9.10;5.00;;;;;;;1.80;72.91;100992.82;106211;1268;74698;-82
2021/12/19 04:25:59;;;;;;;8.10;4.90;;;;;;;1.83;73.25;100990.67;106357;1266;62728;-81
2021/12/19 04:28:28;;;;;;;7.90;4.90;;;;;;;1.89;74.12;100988.61;106165;1269;60332;-81
2021/12/19 04:31:00;;;;;;;9.10;4.70;;;;;;;1.89;73.11;100989.46;106329;1266;71931;-81
2021/12/19 04:33:32;;;;;;;8.80;5.10;;;;;;;1.93;73.22;100986.59;106362;1269;71516;-83
2021/12/19 04:36:01;;;;;;;7.60;4.50;;;;;;;1.96;73.23;100988.37;106320;1265;71582;-83
2021/12/19 05:01:00;;;;;;;10.20;6.80;;;;;;;2.18;75.44;100938.67;106255;1266;61343;-82
2021/12/19 05:16:45;;;;;;;9.70;4.30;;;;;;;2.27;74.30;100909.16;106145;1270;59153;-81
2021/12/19 05:20:07;;;;;;;6.60;4.00;;;;;;;2.23;73.53;100906.89;106226;1263;70963;-82
2021/12/19 05:22:44;;;;;;;7.60;4.50;;;;;;;2.21;73.88;100907.48;106225;1266;71989;-83
2021/12/19 05:25:18;;;;;;;8.90;6.00;;;;;;;2.19;73.54;100904.64;106264;1265;69855;-82
2021/12/19 05:27:53;;;;;;;7.70;5.00;;;;;;;2.19;73.51;100903.08;106033;1270;73741;-80
2021/12/19 05:30:23;;;;;;;8.40;5.30;;;;;;;2.21;74.91;100902.31;106225;1265;58943;-80
2021/12/19 05:32:53;;;;;;;8.40;4.90;;;;;;;2.24;74.06;100896.73;106093;1265;61734;-80
2021/12/19 05:46:58;;;;;;;8.00;4.70;;;;;;;2.28;73.19;100892.27;106182;1265;59075;-81
2021/12/19 05:49:28;;;;;;;7.40;4.50;;;;;;;2.27;73.93;100887.84;106001;1270;59637;-81
2021/12/19 05:51:57;;;;;;;8.70;6.00;;;;;;;2.31;73.73;100888.22;106006;1268;72791;-84
2021/12/19 05:54:26;;;;;;;11.60;7.00;;;;;;;2.32;73.32;100883.54;105997;1270;72174;-81
2021/12/19 05:56:54;;;;;;;9.30;5.40;;;;;;;2.28;73.13;100879.36;105992;1268;71231;-83
2021/12/19 05:59:23;;;;;;;5.80;3.90;;;;;;;2.28;73.29;100878.34;106198;1265;73536;-80
2021/12/19 06:01:52;;;;;;;7.70;4.90;;;;;;;2.34;72.81;100877.95;106056;1265;60268;-83
2021/12/19 06:04:21;;;;;;;6.10;3.90;;;;;;;2.26;73.24;100874.13;106082;1268;62220;-87
2021/12/19 06:06:51;;;;;;;9.50;3.60;;;;;;;2.22;73.80;100874.61;106035;1265;73917;-85
2021/12/19 06:09:20;;;;;;;8.00;4.80;;;;;;;2.21;74.20;100866.92;106222;1266;71471;-84
2021/12/19 06:11:49;;;;;;;7.40;4.60;;;;;;;2.18;75.16;100872.02;106153;1265;71436;-87
2021/12/19 06:14:17;;;;;;;8.80;4.60;;;;;;;2.08;75.76;100870.11;106242;1266;73561;-84
2021/12/19 06:16:46;;;;;;;13.70;3.50;;;;;;;2.01;75.76;100864.19;106219;1265;62696;-83
2021/12/19 06:19:15;;;;;;;4.90;3.00;;;;;;;2.01;76.27;100865.21;106270;1269;60720;-84
2021/12/19 06:21:44;;;;;;;10.10;5.90;;;;;;;1.91;76.77;100862.99;106111;1268;71243;-82
2021/12/19 06:24:13;;;;;;;9.30;5.30;;;;;;;1.87;77.69;100859.86;106252;1265;71224;-84
2021/12/19 06:26:42;;;;;;;10.90;6.20;;;;;;;1.80;78.15;100855.77;106248;1265;70990;-83
2021/12/19 06:29:10;;;;;;;10.30;6.10;;;;;;;1.83;78.01;100853.63;106241;1266;73680;-83
2021/12/19 06:31:39;;;;;;;9.30;5.80;;;;;;;1.82;77.86;100852.11;105910;1269;62526;-83
2021/12/19 06:34:08;;;;;;;9.00;5.80;;;;;;;1.88;78.70;100851.55;105823;1271;61036;-85
2021/12/19 06:36:38;;;;;;;9.40;6.10;;;;;;;1.92;78.72;100851.08;106126;1265;74410;-84
2021/12/19 06:39:07;;;;;;;7.80;4.80;;;;;;;1.90;78.86;100847.54;105920;1266;72440;-83
2021/12/19 06:41:39;;;;;;;9.00;5.90;;;;;;;1.93;79.21;100849.34;106040;1269;71322;-85
2021/12/19 06:44:08;;;;;;;13.00;6.90;;;;;;;1.91;79.40;100844.25;105770;1270;73986;-85
2021/12/19 06:46:37;;;;;;;9.70;6.40;;;;;;;1.93;79.24;100834.58;105641;1270;60922;-82
2021/12/19 06:49:06;;;;;;;8.30;4.60;;;;;;;1.97;79.48;100826.20;106066;1265;61663;-85
2021/12/19 06:51:35;;;;;;;12.40;6.90;;;;;;;1.99;79.44;100817.16;106158;1266;74526;-86
2021/12/19 06:54:03;;;;;;;11.00;6.60;;;;;;;1.97;79.42;100810.38;106107;1265;71270;-84
2021/12/19 06:56:33;;;;;;;11.40;6.30;;;;;;;2.00;79.40;100804.75;106094;1266;72189;-81
2021/12/19 06:59:01;;;;;;;10.90;6.00;;;;;;;2.04;79.46;100796.90;105903;1269;74527;-85
2021/12/19 07:01:31;;;;;;;7.30;4.60;;;;;;;2.16;80.14;100790.45;105898;1269;61911;-84
2021/12/19 07:03:59;;;;;;;8.70;5.10;;;;;;;2.20;79.90;100785.49;106133;1266;61895;-85
2021/12/19 07:06:29;;;;;;;7.70;4.30;;;;;;;2.20;79.98;100783.81;106256;1265;72350;-77
2021/12/19 07:08:59;;;;;;;9.10;5.60;;;;;;;2.22;79.84;100775.63;106333;1269;70709;-82
2021/12/19 07:11:27;;;;;;;11.40;5.60;;;;;;;2.22;80.17;100768.60;106754;1268;69840;-82
2021/12/19 07:13:57;;;;;;;9.20;5.50;;;;;;;2.24;80.68;100764.05;106759;1265;71562;-83
2021/12/19 07:16:27;;;;;;;8.00;5.60;;;;;;;2.25;79.64;100751.64;107011;1269;58914;-82
2021/12/19 07:18:57;;;;;;;10.30;6.90;;;;;;;2.35;79.63;100749.52;106571;1268;59040;-81
2021/12/19 07:21:29;;;;;;;10.50;6.90;;;;;;;2.41;79.36;100746.91;106263;1265;74636;-84
2021/12/19 07:23:57;;;;;;;10.60;7.10;;;;;;;2.45;78.88;100751.41;106112;1265;72628;-81
2021/12/19 07:26:27;;;;;;;9.00;5.60;;;;;;;2.58;79.30;100757.94;106053;1268;70145;-82
2021/12/19 07:28:57;;;;;;;9.60;6.30;;;;;;;2.63;78.80;100756.04;106278;1266;73011;-80
2021/12/19 07:31:29;;;;;;;11.70;6.70;;;;;;;2.56;78.08;100753.04;106033;1269;61878;-83
2021/12/19 07:33:58;;;;;;;11.60;7.00;;;;;;;2.63;79.67;100749.48;106319;1265;59470;-84
2021/12/19 07:36:36;;;;;;;12.10;7.30;;;;;;;2.60;77.60;100744.98;106278;1267;70957;-81
2021/12/19 07:39:09;;;;;;;8.60;5.10;;;;;;;2.68;78.89;100736.05;106000;1265;72714;-84
2021/12/19 07:41:39;;;;;;;11.50;6.70;;;;;;;2.67;78.57;100731.13;106362;1266;70708;-86
2021/12/19 07:44:08;;;;;;;9.20;6.60;;;;;;;2.72;79.74;100735.55;106083;1269;73999;-82
2021/12/19 07:46:37;;;;;;;7.70;4.60;;;;;;;2.77;80.23;100737.61;106039;1266;62703;-83
2021/12/19 07:49:06;;;;;;;9.20;4.70;;;;;;;2.80;77.66;100730.41;106093;1265;61291;-84
2021/12/19 07:51:35;;;;;;;9.90;5.50;;;;;;;2.70;76.85;100728.95;106566;1268;74463;-81
2021/12/19 07:54:04;;;;;;;9.90;6.30;;;;;;;2.64;77.07;100722.81;106585;1269;72390;-82
2021/12/19 07:56:34;;;;;;;10.50;7.10;;;;;;;2.61;77.56;100721.57;106662;1269;70909;-86
2021/12/19 07:59:03;;;;;;;10.40;6.80;;;;;;;2.66;77.65;100718.07;106456;1266;74685;-78
2021/12/19 08:01:33;;;;;;;12.80;8.00;;;;;;;2.65;77.73;100712.63;106081;1268;59991;-78
2021/12/19 08:04:02;;;;;;;10.40;6.10;;;;;;;2.66;77.76;100707.45;105980;1268;58978;-67
2021/12/19 08:06:32;;;;;;;13.00;7.30;;;;;;;2.78;77.65;100702.67;106043;1265;71726;-70
2021/12/19 08:09:12;;;;;;;16.20;8.60;;;;;;;2.80;77.86;100698.97;106023;1266;69632;-67
2021/12/19 08:11:41;;;;;;;13.80;8.70;;;;;;;2.86;77.52;100696.46;106109;1265;70679;-68
2021/12/19 08:14:14;;;;;;;11.70;7.20;;;;;;;2.88;77.68;100692.44;105841;1269;73019;-68
2021/12/19 08:16:44;;;;;;;10.20;5.30;;;;;;;3.00;77.60;100692.66;106136;1265;61384;-68
2021/12/19 08:19:13;;;;;;;8.00;5.20;;;;;;;3.10;77.75;100688.23;106141;1266;59110;-69
2021/12/19 08:21:42;;;;;;;15.20;6.50;;;;;;;3.15;78.25;100679.12;105819;1268;72963;-72
2021/12/19 08:24:13;;;;;;;5.60;3.70;;;;;;;3.24;77.60;100676.49;106139;1266;71632;-71
2021/12/19 08:26:43;;;;;;;8.40;4.70;;;;;;;3.36;75.00;100669.58;106122;1269;69705;-69
2021/12/19 08:29:12;;;;;;;10.00;4.90;;;;;;;3.35;74.16;100667.41;106269;1265;72994;-70
2021/12/19 08:31:41;;;;;;;8.90;5.30;;;;;;;3.27;74.74;100660.34;106068;1268;59972;-66
2021/12/19 08:34:10;;;;;;;8.90;5.50;;;;;;;3.29;75.21;100650.64;106292;1265;59218;-70
2021/12/19 08:36:39;;;;;;;11.50;7.70;;;;;;;3.34;74.36;100646.80;106275;1265;71726;-69
2021/12/19 08:39:11;;;;;;;7.50;4.90;;;;;;;3.34;74.77;100643.18;106050;1269;71192;-70
2021/12/19 08:41:39;;;;;;;5.90;4.10;;;;;;;3.48;73.45;100632.41;106105;1268;69747;-65
2021/12/19 08:44:08;;;;;;;6.10;3.80;;;;;;;3.56;72.05;100624.13;106189;1265;74712;-75
2021/12/19 08:46:38;;;;;;;7.40;4.60;;;;;;;3.62;72.04;100615.94;106187;1266;59454;-72
2021/12/19 08:49:11;;;;;;;8.80;5.20;;;;;;;3.65;71.62;100612.19;105948;1269;61362;-71
2021/12/19 08:51:40;;;;;;;8.80;5.00;;;;;;;3.66;72.55;100604.90;105945;1270;74301;-72
2021/12/19 08:54:09;;;;;;;8.10;5.20;;;;;;;3.71;73.17;100599.89;105991;1268;71729;-72
2021/12/19 08:56:38;;;;;;;6.30;4.60;;;;;;;3.79;72.30;100590.21;106252;1266;70908;-72
2021/12/19 08:59:07;;;;;;;8.20;5.50;;;;;;;3.92;71.65;100584.56;106075;1266;75304;-69
2021/12/19 09:01:36;;;;;;;4.90;3.30;;;;;;;3.88;72.03;100573.74;106277;1269;60205;-73
2021/12/19 09:04:05;;;;;;;4.70;2.90;;;;;;;4.07;71.32;100561.65;106248;1265;60863;-75
2021/12/19 09:06:35;;;;;;;9.10;5.30;;;;;;;4.17;70.99;100554.44;105888;1269;71493;-73
2021/12/19 09:09:04;;;;;;;7.00;4.00;;;;;;;4.14;71.40;100548.58;106102;1269;72274;-72
2021/12/19 09:11:33;;;;;;;6.40;4.10;;;;;;;4.31;70.56;100537.91;106288;1268;68343;-78
2021/12/19 09:14:03;;;;;;;6.20;4.20;;;;;;;4.38;70.00;100533.77;106307;1266;73097;-74
2021/12/19 09:16:32;;;;;;;9.20;5.20;;;;;;;4.44;70.82;100527.11;106146;1269;61744;-72
2021/12/19 09:19:13;;;;;;;10.40;5.20;;;;;;;4.43;71.22;100524.89;106275;1268;61838;-74
2021/12/19 09:21:42;;;;;;;7.70;4.20;;;;;;;4.63;71.20;100519.77;106003;1269;71301;-75
2021/12/19 09:24:11;;;;;;;7.00;4.40;;;;;;;4.80;69.58;100515.92;106125;1269;71814;-75
2021/12/19 09:26:40;;;;;;;8.50;4.60;;;;;;;4.82;69.48;100504.31;106229;1269;68987;-79
2021/12/19 09:29:09;;;;;;;7.20;4.40;;;;;;;4.81;70.35;100499.70;106032;1269;73397;-72
2021/12/19 09:31:38;;;;;;;7.50;4.60;;;;;;;4.94;70.18;100495.90;106146;1266;58933;-76
2021/12/19 09:34:07;;;;;;;8.60;4.90;;;;;;;5.05;67.89;100494.29;106108;1268;61308;-75
2021/12/19 09:36:36;;;;;;;6.70;3.60;;;;;;;5.05;68.78;100490.64;106392;1266;73779;-76
2021/12/19 09:39:05;;;;;;;5.50;3.80;;;;;;;5.17;67.19;100487.09;105953;1267;70440;-76
2021/12/19 09:41:36;;;;;;;5.70;3.50;;;;;;;5.18;66.88;100483.92;106164;1266;68712;-76
2021/12/19 09:44:09;;;;;;;6.00;3.00;;;;;;;5.18;66.29;100479.83;105919;1269;72014;-77
2021/12/19 09:46:39;;;;;;;8.60;4.40;;;;;;;5.20;66.46;100476.04;106146;1265;60335;-77
2021/12/19 09:49:11;;;;;;;9.20;4.70;;;;;;;5.13;67.10;100475.58;106121;1265;59593;-75
2021/12/19 09:51:39;;;;;;;7.80;3.90;;;;;;;5.16;67.80;100469.38;106006;1268;73948;-74
2021/12/19 09:54:09;;;;;;;5.20;3.40;;;;;;;5.26;66.73;100464.65;106062;1269;70589;-77
2021/12/19 09:56:39;;;;;;;11.00;5.10;;;;;;;5.33;65.99;100455.85;106154;1269;69814;-78
2021/12/19 09:59:14;;;;;;;9.20;4.70;;;;;;;5.32;66.67;100449.35;106184;1266;73958;-78
2021/12/19 10:01:43;;;;;;;6.60;4.50;;;;;;;5.41;66.99;100450.39;106095;1266;60624;-78
2021/12/19 10:04:33;;;;;;;6.90;4.20;;;;;;;5.65;68.19;100444.41;105849;1266;61016;-78
2021/12/19 10:07:04;;;;;;;4.60;2.60;;;;;;;5.89;65.27;100437.16;106041;1269;72028;-74
2021/12/19 10:09:36;;;;;;;5.20;3.30;;;;;;;6.01;62.15;100430.33;106064;1265;71365;-74
2021/12/19 10:12:38;;;;;;;5.50;3.30;;;;;;;5.96;62.25;100423.16;106111;1269;70648;-75
2021/12/19 10:15:17;;;;;;;5.80;3.70;;;;;;;5.90;63.71;100417.60;106103;1266;74208;-75
2021/12/19 10:17:47;;;;;;;7.40;3.90;;;;;;;6.03;65.57;100411.84;106017;1268;63098;-76
2021/12/19 10:20:16;;;;;;;7.30;4.40;;;;;;;6.22;67.08;100405.18;106023;1269;61668;-77
2021/12/19 10:22:47;;;;;;;7.50;4.30;;;;;;;6.40;64.62;100407.09;106270;1268;74440;-78
2021/12/19 10:25:25;;;;;;;9.70;4.80;;;;;;;6.64;65.90;100399.38;106027;1269;73370;-80
2021/12/19 10:27:56;;;;;;;6.60;4.50;;;;;;;6.91;65.39;100397.40;106252;1268;69730;-77
2021/12/19 10:30:46;;;;;;;11.40;5.30;;;;;;;7.07;63.59;100396.38;106196;1267;74586;-78
2021/12/19 10:33:27;;;;;;;7.60;4.20;;;;;;;7.31;64.74;100401.13;106193;1269;62620;-79
2021/12/19 10:36:02;;;;;;;7.50;4.70;;;;;;;7.45;65.08;100394.65;106108;1268;62588;-78
2021/12/19 10:38:46;;;;;;;10.10;4.80;;;;;;;7.43;65.23;100399.79;106017;1268;75549;-76
2021/12/19 10:41:21;;;;;;;8.80;5.00;;;;;;;7.38;62.08;100393.33;105983;1268;70006;-73
2021/12/19 10:44:00;;;;;;;8.80;5.00;;;;;;;7.20;60.04;100395.04;106156;1269;70568;-74
2021/12/19 10:46:39;;;;;;;9.30;5.50;;;;;;;7.14;57.90;100392.48;106272;1268;72401;-76
2021/12/19 10:49:32;;;;;;;8.20;5.00;;;;;;;6.97;58.44;100388.55;106048;1269;60161;-75
2021/12/19 10:52:04;;;;;;;18.80;6.10;;;;;;;7.11;61.97;100389.19;106293;1265;60044;-78
2021/12/19 10:54:33;;;;;;;11.50;6.00;;;;;;;7.18;62.47;100385.64;106155;1269;71989;-74
2021/12/19 10:57:08;;;;;;;8.10;5.10;;;;;;;7.23;61.45;100379.27;106154;1266;72490;-73
2021/12/19 10:59:37;;;;;;;8.60;5.50;;;;;;;7.31;63.11;100369.61;106107;1269;69238;-80
2021/12/19 11:02:06;;;;;;;7.60;4.70;;;;;;;7.33;61.86;100370.14;106213;1269;73951;-77
2021/12/19 11:04:35;;;;;;;8.40;5.00;;;;;;;7.15;60.31;100374.56;106132;1269;60956;-79
2021/12/19 11:07:04;;;;;;;5.80;4.40;;;;;;;7.05;60.24;100370.91;106128;1270;60571;-76
2021/12/19 11:09:37;;;;;;;8.60;5.00;;;;;;;7.04;59.45;100368.35;106105;1270;73713;-78
2021/12/19 11:12:13;;;;;;;9.30;5.20;;;;;;;7.01;59.72;100370.80;106173;1270;70271;-82
2021/12/19 11:14:48;;;;;;;9.50;5.60;;;;;;;6.85;59.89;100374.19;106182;1266;69337;-74
2021/12/19 11:17:26;;;;;;;7.90;4.50;;;;;;;6.80;60.41;100370.70;106352;1266;72356;-77
2021/12/19 11:19:56;;;;;;;8.70;5.50;;;;;;;6.69;59.63;100371.05;106075;1270;61670;-77
2021/12/19 11:22:27;;;;;;;9.40;5.60;;;;;;;6.72;60.80;100368.77;106312;1265;60415;-80
2021/12/19 11:25:02;;;;;;;11.10;6.20;;;;;;;6.77;61.13;100366.20;107075;1266;72010;-79
2021/12/19 11:27:32;;;;;;;8.10;5.50;;;;;;;6.82;60.89;100363.17;106479;1268;69670;-81
2021/12/19 11:30:01;;;;;;;9.60;5.30;;;;;;;6.83;60.80;100354.95;106394;1266;67981;-78
2021/12/19 11:33:19;;;;;;;9.30;6.40;;;;;;;6.75;60.52;100353.37;106070;1269;71282;-75
2021/12/19 11:35:49;;;;;;;8.70;5.80;;;;;;;6.74;61.18;100352.41;105295;1277;59273;-77
2021/12/19 11:38:20;;;;;;;8.80;4.70;;;;;;;6.82;60.74;100348.75;105741;1272;61476;-84
2021/12/19 11:40:51;;;;;;;7.90;4.70;;;;;;;6.75;60.30;100348.84;106135;1270;74903;-80
2021/12/19 11:43:20;;;;;;;6.40;4.20;;;;;;;6.70;60.66;100350.23;106216;1266;70856;-79
2021/12/19 11:45:58;;;;;;;6.70;4.30;;;;;;;6.72;61.14;100351.85;106171;1270;69568;-79
2021/12/19 11:48:33;;;;;;;8.80;5.50;;;;;;;6.77;60.59;100346.70;105790;1271;70718;-79
2021/12/19 11:51:18;;;;;;;7.40;5.40;;;;;;;6.75;61.56;100343.85;105976;1270;59548;-79
2021/12/19 11:53:47;;;;;;;7.80;5.60;;;;;;;6.75;61.03;100347.69;106239;1269;59501;-77
2021/12/19 11:56:18;;;;;;;8.50;5.60;;;;;;;6.67;61.33;100340.88;105917;1269;72839;-81
2021/12/19 11:58:52;;;;;;;7.30;5.40;;;;;;;6.75;62.17;100341.92;106034;1269;72643;-81
2021/12/19 12:01:33;;;;;;;6.90;4.60;;;;;;;6.86;60.94;100335.53;106051;1269;70095;-80
2021/12/19 12:04:17;;;;;;;11.70;5.90;;;;;;;6.92;61.15;100332.56;106345;1266;73920;-77
2021/12/19 12:06:56;;;;;;;8.70;5.00;;;;;;;6.97;61.02;100335.55;106179;1269;62221;-77
2021/12/19 12:09:33;;;;;;;7.90;5.20;;;;;;;6.91;61.31;100335.92;106342;1266;60272;-75
2021/12/19 12:12:07;;;;;;;8.00;5.20;;;;;;;6.84;61.57;100341.88;106373;1265;72811;-78
2021/12/19 12:14:56;;;;;;;9.40;5.10;;;;;;;6.75;62.02;100338.99;106295;1269;69500;-79
2021/12/19 12:17:38;;;;;;;7.80;4.80;;;;;;;6.76;62.59;100337.25;106127;1271;68710;-76
2021/12/19 12:20:19;;;;;;;10.70;6.00;;;;;;;6.68;63.04;100339.59;106114;1270;74329;-80
2021/12/19 12:22:57;;;;;;;9.60;4.70;;;;;;;6.72;63.28;100333.30;106101;1270;61775;-78
2021/12/19 12:25:27;;;;;;;8.50;5.70;;;;;;;6.74;63.15;100332.70;106284;1268;60979;-78
2021/12/19 12:28:05;;;;;;;7.90;5.10;;;;;;;6.83;63.09;100329.71;106176;1270;73497;-78
2021/12/19 12:30:45;;;;;;;9.90;5.50;;;;;;;6.82;63.08;100328.17;106197;1265;70413;-74
2021/12/19 12:33:17;;;;;;;10.80;5.80;;;;;;;6.79;63.76;100326.11;106171;1266;70445;-75
2021/12/19 12:35:50;;;;;;;9.80;5.50;;;;;;;6.85;64.01;100331.98;106054;1270;74313;-73
2021/12/19 12:38:20;;;;;;;7.80;4.30;;;;;;;6.78;63.48;100331.71;106166;1269;62341;-81
2021/12/19 12:40:55;;;;;;;9.90;5.60;;;;;;;6.64;63.63;100323.91;105970;1270;62973;-79
2021/12/19 12:43:45;;;;;;;7.80;4.50;;;;;;;6.61;64.24;100321.34;105969;1268;71552;-80
2021/12/19 12:46:17;;;;;;;10.10;6.20;;;;;;;6.51;64.56;100317.16;106005;1270;70335;-77
2021/12/19 12:48:53;;;;;;;11.50;6.50;;;;;;;6.50;65.09;100318.06;106197;1270;70429;-78
2021/12/19 12:51:42;;;;;;;8.50;4.80;;;;;;;6.48;65.22;100311.77;105975;1270;74703;-82